Time;durP1;ratioP1;P1;durP2;ratioP2;P2;SDS_P1;SDS_P2;PMS_P1;PMS_P2;Temp;Humidity;BMP_temperature;BMP_pressure;BME280_temperature;BME280_humidity;BME280_pressure;Samples;Min_cycle;Max_cycle;Signal;HPM_P1;HPM_P2
2022/01/05 00:00:47;;;;;;;3.20;2.80;;;;;;;4.15;100.00;99221.69;5024026;28;20702;-55
2022/01/05 00:03:13;;;;;;;3.97;2.80;;;;;;;4.15;100.00;99220.84;5018627;28;20260;-55
2022/01/05 00:05:39;;;;;;;7.23;3.00;;;;;;;4.07;100.00;99220.81;5019974;28;20303;-56
2022/01/05 00:08:06;;;;;;;4.03;2.83;;;;;;;4.00;100.00;99221.66;5023421;28;20819;-55
2022/01/05 00:10:32;;;;;;;2.47;2.27;;;;;;;3.98;100.00;99226.00;5019463;28;20237;-55
2022/01/05 00:12:58;;;;;;;4.37;2.73;;;;;;;3.90;100.00;99226.00;5023525;28;20267;-57
2022/01/05 00:15:25;;;;;;;3.57;2.77;;;;;;;4.02;100.00;99240.72;5022614;28;20232;-59
2022/01/05 00:17:53;;;;;;;3.93;2.20;;;;;;;3.96;100.00;99240.72;5022865;28;20236;-56
2022/01/05 00:20:19;;;;;;;5.30;2.33;;;;;;;4.05;100.00;99236.41;5022549;28;20260;-55
2022/01/05 00:22:46;;;;;;;5.93;2.03;;;;;;;4.03;100.00;99235.53;5024162;28;20228;-53
2022/01/05 00:25:12;;;;;;;2.80;1.90;;;;;;;3.98;100.00;99234.66;5022862;28;20259;-54
2022/01/05 00:27:38;;;;;;;2.83;2.00;;;;;;;3.95;100.00;99229.47;5019609;28;20236;-54
2022/01/05 00:30:06;;;;;;;2.90;2.13;;;;;;;3.93;100.00;99235.50;5019444;28;20327;-54
2022/01/05 00:32:32;;;;;;;7.40;2.30;;;;;;;3.89;100.00;99244.16;5018393;28;20261;-54
2022/01/05 00:35:00;;;;;;;1.70;1.53;;;;;;;3.89;100.00;99238.97;5020762;28;20294;-54
2022/01/05 00:37:26;;;;;;;4.63;2.33;;;;;;;3.90;100.00;99238.13;5014319;28;20240;-54
2022/01/05 00:39:52;;;;;;;4.10;1.73;;;;;;;3.90;100.00;99231.19;5016930;28;20312;-54
2022/01/05 00:42:19;;;;;;;3.07;2.00;;;;;;;3.84;100.00;99228.59;5017613;28;20244;-54
2022/01/05 00:44:45;;;;;;;3.47;1.90;;;;;;;3.91;100.00;99234.66;5023058;28;20232;-54
2022/01/05 00:47:12;;;;;;;3.50;1.93;;;;;;;3.85;100.00;99229.44;5015185;28;20251;-54
2022/01/05 00:49:38;;;;;;;4.73;2.13;;;;;;;3.82;100.00;99228.56;5018701;28;20257;-53
2022/01/05 00:52:06;;;;;;;3.17;1.87;;;;;;;3.82;100.00;99238.09;5023280;28;20243;-53
2022/01/05 00:54:33;;;;;;;2.43;1.70;;;;;;;3.76;100.00;99238.09;5022624;28;20242;-54
2022/01/05 00:56:59;;;;;;;3.83;1.40;;;;;;;3.74;100.00;99237.22;5023524;28;20235;-53
2022/01/05 00:59:25;;;;;;;2.27;1.63;;;;;;;3.73;100.00;99232.91;5022281;28;20267;-54
2022/01/05 01:01:52;;;;;;;3.43;1.60;;;;;;;3.76;100.00;99218.19;5022214;28;20244;-53
2022/01/05 01:04:18;;;;;;;1.73;1.17;;;;;;;3.87;100.00;99217.34;5023360;28;20252;-54
2022/01/05 01:06:44;;;;;;;3.87;1.93;;;;;;;3.88;100.00;99212.16;5019614;28;20286;-56
2022/01/05 01:09:13;;;;;;;4.77;1.80;;;;;;;3.94;100.00;99221.69;5022508;28;20242;-54
2022/01/05 01:11:39;;;;;;;3.53;1.43;;;;;;;3.87;100.00;99226.00;5022325;28;20294;-55
2022/01/05 01:14:05;;;;;;;3.17;1.50;;;;;;;3.97;100.00;99221.69;5020165;28;20228;-54
2022/01/05 01:16:32;;;;;;;2.20;1.60;;;;;;;3.96;100.00;99219.94;5019984;28;20236;-54
2022/01/05 01:18:58;;;;;;;6.10;1.90;;;;;;;3.95;100.00;99223.41;5020244;28;20268;-53
2022/01/05 01:21:25;;;;;;;3.00;1.30;;;;;;;3.94;100.00;99230.34;5016884;28;20231;-54
2022/01/05 01:23:55;;;;;;;2.60;1.50;;;;;;;4.00;100.00;99237.25;5022999;28;20293;-54
2022/01/05 01:26:24;;;;;;;7.10;2.17;;;;;;;3.95;100.00;99233.78;5022698;28;20324;-54
2022/01/05 01:28:51;;;;;;;7.13;1.63;;;;;;;3.92;100.00;99223.41;5022922;28;20316;-55
2022/01/05 01:31:17;;;;;;;6.53;1.87;;;;;;;3.93;100.00;99219.94;5014538;28;20247;-53
2022/01/05 01:33:44;;;;;;;4.13;1.37;;;;;;;4.01;100.00;99220.81;5020017;28;20239;-53
2022/01/05 01:36:10;;;;;;;2.37;1.37;;;;;;;3.99;100.00;99218.22;5025368;28;20741;-54
2022/01/05 01:38:37;;;;;;;5.43;1.67;;;;;;;3.94;100.00;99232.06;5026143;28;20252;-54
2022/01/05 01:41:03;;;;;;;1.83;1.27;;;;;;;3.87;100.00;99230.31;5021611;28;20258;-55
2022/01/05 01:43:31;;;;;;;3.77;1.37;;;;;;;3.93;100.00;99230.31;5025139;28;20257;-55
2022/01/05 01:45:58;;;;;;;3.90;1.90;;;;;;;3.92;100.00;99233.78;5024272;28;20236;-54
2022/01/05 01:48:24;;;;;;;3.00;1.83;;;;;;;3.99;100.00;99220.81;5023613;28;20738;-54
2022/01/05 01:50:50;;;;;;;3.80;1.83;;;;;;;3.90;100.00;99218.22;5024850;28;20232;-54
2022/01/05 01:53:16;;;;;;;5.03;2.87;;;;;;;3.87;100.00;99218.22;5023805;28;20232;-54
2022/01/05 01:55:43;;;;;;;1.10;1.00;;;;;;;3.98;100.00;99224.28;5017914;28;20268;-54
2022/01/05 01:58:09;;;;;;;6.67;1.67;;;;;;;4.01;100.00;99213.91;5015474;28;20221;-53
2022/01/05 02:00:37;;;;;;;1.47;0.90;;;;;;;4.05;100.00;99209.56;5029685;28;20741;-53
2022/01/05 02:03:04;;;;;;;5.00;1.20;;;;;;;3.99;100.00;99212.16;5028421;28;20264;-54
2022/01/05 02:05:30;;;;;;;3.93;1.77;;;;;;;3.95;100.00;99198.31;5029714;28;20283;-55
2022/01/05 02:07:57;;;;;;;3.43;1.17;;;;;;;3.90;100.00;99202.63;5032019;28;20297;-53
2022/01/05 02:10:23;;;;;;;6.50;1.17;;;;;;;3.94;100.00;99201.78;5027547;28;20245;-54
2022/01/05 02:12:50;;;;;;;2.00;1.40;;;;;;;4.06;100.00;99200.91;5029292;28;20289;-55
2022/01/05 02:15:17;;;;;;;1.20;1.10;;;;;;;3.89;100.00;99200.03;5022862;28;20246;-54
2022/01/05 02:17:55;;;;;;;3.67;1.50;;;;;;;3.91;100.00;99206.09;5026849;28;20248;-53
2022/01/05 02:20:23;;;;;;;3.43;1.83;;;;;;;3.96;100.00;99204.34;5027276;28;20315;-55
2022/01/05 02:22:51;;;;;;;5.53;1.90;;;;;;;4.14;100.00;99209.59;5027144;28;20224;-54
2022/01/05 02:25:18;;;;;;;1.33;0.93;;;;;;;4.15;100.00;99211.31;5030194;28;20301;-53
2022/01/05 02:27:47;;;;;;;2.93;1.50;;;;;;;4.03;100.00;99213.88;5021863;28;20256;-54
2022/01/05 02:30:15;;;;;;;3.97;1.27;;;;;;;4.03;100.00;99224.28;5026434;28;20890;-53
2022/01/05 02:32:41;;;;;;;3.67;1.40;;;;;;;3.94;100.00;99219.09;5024693;28;20260;-52
2022/01/05 02:35:10;;;;;;;1.80;1.20;;;;;;;3.93;100.00;99230.31;5024379;28;20321;-53
2022/01/05 02:37:40;;;;;;;4.10;1.60;;;;;;;4.02;100.00;99238.13;5023663;28;20707;-51
2022/01/05 02:40:10;;;;;;;4.40;1.93;;;;;;;3.92;100.00;99226.84;5024679;28;20240;-55
2022/01/05 02:42:36;;;;;;;3.40;1.07;;;;;;;3.97;100.00;99229.47;5026086;28;20733;-54
2022/01/05 02:45:05;;;;;;;4.17;1.40;;;;;;;3.98;100.00;99229.47;5025216;28;20243;-52
2022/01/05 02:47:31;;;;;;;2.23;1.10;;;;;;;3.93;100.00;99223.41;5024148;28;20260;-53
2022/01/05 02:49:57;;;;;;;5.27;1.30;;;;;;;4.02;100.00;99214.75;5029903;28;20715;-54
2022/01/05 02:52:24;;;;;;;3.07;1.40;;;;;;;3.94;100.00;99216.50;5030594;28;20282;-52
2022/01/05 02:54:50;;;;;;;2.67;1.47;;;;;;;3.93;100.00;99217.34;5026467;28;20256;-56
2022/01/05 02:57:18;;;;;;;3.07;1.30;;;;;;;3.86;100.00;99225.97;5022024;28;20978;-55
2022/01/05 02:59:44;;;;;;;6.47;2.03;;;;;;;3.96;100.00;99227.72;5027327;28;20276;-55
2022/01/05 03:02:11;;;;;;;1.87;1.10;;;;;;;3.91;100.00;99232.91;5024399;28;20316;-54
2022/01/05 03:04:37;;;;;;;3.40;1.33;;;;;;;3.87;100.00;99225.13;5024644;28;20236;-56
2022/01/05 03:07:04;;;;;;;6.90;1.43;;;;;;;4.02;100.00;99232.94;5024137;28;20318;-56
2022/01/05 03:09:30;;;;;;;4.60;0.90;;;;;;;4.06;100.00;99232.06;5022825;28;20392;-54
2022/01/05 03:11:56;;;;;;;5.87;1.90;;;;;;;4.01;100.00;99228.63;5024219;28;20906;-54
2022/01/05 03:14:24;;;;;;;2.33;1.50;;;;;;;4.00;100.00;99221.66;5025038;28;20255;-53
2022/01/05 03:16:50;;;;;;;2.20;1.30;;;;;;;4.11;100.00;99219.06;5024668;28;20373;-55
2022/01/05 03:19:17;;;;;;;4.23;1.60;;;;;;;4.04;100.00;99213.03;5024973;28;20248;-53
2022/01/05 03:21:43;;;;;;;1.67;0.97;;;;;;;4.00;100.00;99211.28;5018365;28;20904;-55
2022/01/05 03:24:09;;;;;;;2.03;1.10;;;;;;;4.01;100.00;99210.44;5025141;28;20275;-52
2022/01/05 03:26:36;;;;;;;3.40;1.30;;;;;;;4.00;100.00;99208.69;5023393;28;20322;-51
2022/01/05 03:29:02;;;;;;;6.83;1.30;;;;;;;4.10;100.00;99214.75;5025703;28;20262;-54
2022/01/05 03:31:30;;;;;;;2.57;1.33;;;;;;;4.14;100.00;99217.38;5024402;28;20283;-53
2022/01/05 03:33:56;;;;;;;5.37;1.30;;;;;;;4.12;100.00;99218.22;5020849;28;20233;-54
2022/01/05 03:36:23;;;;;;;6.63;1.80;;;;;;;3.96;100.00;99218.19;5023692;28;20259;-56
2022/01/05 03:38:49;;;;;;;2.93;1.30;;;;;;;3.91;100.00;99211.28;5024849;28;21098;-55
2022/01/05 03:41:15;;;;;;;2.87;1.07;;;;;;;3.91;100.00;99214.75;5024424;28;20267;-53
2022/01/05 03:43:42;;;;;;;5.50;1.53;;;;;;;3.83;100.00;99221.66;5024372;28;21830;-54
2022/01/05 03:46:08;;;;;;;6.77;1.53;;;;;;;3.94;100.00;99216.50;5025488;28;20232;-55
2022/01/05 03:48:36;;;;;;;4.27;1.17;;;;;;;4.04;100.00;99220.84;5023128;28;20260;-54
2022/01/05 03:51:02;;;;;;;2.63;1.33;;;;;;;4.13;100.00;99223.41;5030701;28;20317;-54
2022/01/05 03:53:28;;;;;;;1.60;1.00;;;;;;;4.09;100.00;99221.69;5024080;28;20248;-53
2022/01/05 03:55:55;;;;;;;6.27;1.77;;;;;;;3.98;100.00;99223.41;5031845;28;20266;-52
2022/01/05 03:58:21;;;;;;;6.70;1.87;;;;;;;3.91;100.00;99230.31;5020290;28;20295;-54
2022/01/05 04:00:49;;;;;;;5.67;1.47;;;;;;;3.91;100.00;99227.72;5026566;28;20366;-51
2022/01/05 04:03:16;;;;;;;11.97;1.67;;;;;;;3.97;100.00;99232.06;5024518;28;20271;-54
2022/01/05 04:05:44;;;;;;;1.77;1.00;;;;;;;3.98;100.00;99228.59;5026134;28;20243;-54
2022/01/05 04:08:11;;;;;;;5.27;1.73;;;;;;;3.92;100.00;99228.59;5026500;28;20263;-55
2022/01/05 04:10:39;;;;;;;5.30;1.20;;;;;;;3.86;100.00;99226.88;5025100;28;20256;-53
2022/01/05 04:13:05;;;;;;;6.73;1.67;;;;;;;4.00;100.00;99232.06;5017291;28;20282;-55
2022/01/05 04:15:32;;;;;;;6.00;1.27;;;;;;;4.00;100.00;99226.84;5033143;28;20496;-59
2022/01/05 04:17:58;;;;;;;5.33;2.10;;;;;;;3.98;100.00;99228.59;5028781;28;20232;-55
2022/01/05 04:20:25;;;;;;;3.20;1.20;;;;;;;3.85;100.00;99237.22;5031306;28;20286;-52
2022/01/05 04:22:52;;;;;;;4.53;1.53;;;;;;;3.92;100.00;99233.78;5016367;28;20257;-56
2022/01/05 04:25:19;;;;;;;1.80;1.30;;;;;;;3.98;100.00;99236.41;5030370;28;20231;-54
2022/01/05 04:27:45;;;;;;;3.53;1.27;;;;;;;3.96;100.00;99231.19;5025332;28;20289;-55
2022/01/05 04:30:12;;;;;;;8.40;1.17;;;;;;;4.14;100.00;99234.66;5024900;28;20248;-55
2022/01/05 04:32:39;;;;;;;5.03;1.73;;;;;;;4.06;100.00;99240.72;5024068;28;20229;-53
2022/01/05 04:35:06;;;;;;;4.13;1.93;;;;;;;4.02;100.00;99240.72;5022091;28;20259;-56
2022/01/05 04:37:33;;;;;;;5.63;2.20;;;;;;;4.11;99.53;99235.56;5021769;28;20271;-55
2022/01/05 04:40:00;;;;;;;4.07;1.30;;;;;;;4.07;99.41;99242.47;5022515;28;20267;-55
2022/01/05 04:42:27;;;;;;;7.10;1.60;;;;;;;4.03;100.00;99239.84;5023550;28;20259;-53
2022/01/05 04:44:53;;;;;;;2.47;1.40;;;;;;;3.92;99.73;99252.81;5024827;28;20231;-61
2022/01/05 04:47:19;;;;;;;4.83;1.03;;;;;;;3.80;100.00;99250.22;5023185;28;20266;-55
2022/01/05 04:49:46;;;;;;;4.07;1.90;;;;;;;3.76;100.00;99243.28;5022617;28;20228;-56
2022/01/05 04:52:12;;;;;;;7.87;1.47;;;;;;;3.77;100.00;99245.00;5023446;28;20313;-55
2022/01/05 04:54:39;;;;;;;6.13;1.53;;;;;;;3.70;100.00;99241.53;5024046;28;20236;-54
2022/01/05 04:57:07;;;;;;;6.73;1.50;;;;;;;3.63;100.00;99254.50;5020384;28;20259;-55
2022/01/05 04:59:33;;;;;;;2.57;1.07;;;;;;;3.57;100.00;99250.13;5019692;28;20256;-55
2022/01/05 05:02:00;;;;;;;7.13;1.40;;;;;;;3.66;100.00;99262.28;5028372;28;20666;-53
2022/01/05 05:04:26;;;;;;;2.70;1.10;;;;;;;3.61;100.00;99246.69;5017976;28;20721;-55
2022/01/05 05:06:52;;;;;;;7.17;1.47;;;;;;;3.60;100.00;99255.34;5025432;28;20258;-56
2022/01/05 05:09:19;;;;;;;5.87;1.20;;;;;;;3.53;100.00;99245.81;5023382;28;20251;-55
2022/01/05 05:11:45;;;;;;;3.30;1.20;;;;;;;3.44;100.00;99241.47;5021990;28;20636;-54
2022/01/05 05:14:13;;;;;;;5.00;1.27;;;;;;;3.45;100.00;99242.31;5023187;28;20260;-55
2022/01/05 05:16:39;;;;;;;4.23;0.87;;;;;;;3.44;100.00;99233.69;5020995;28;20263;-55
2022/01/05 05:19:05;;;;;;;5.07;1.47;;;;;;;3.37;100.00;99229.34;5017183;28;20251;-55
2022/01/05 05:21:32;;;;;;;3.10;0.80;;;;;;;3.40;100.00;99238.84;5025229;28;20259;-55
2022/01/05 05:23:58;;;;;;;1.83;1.00;;;;;;;3.34;100.00;99221.53;5010604;28;20255;-56
2022/01/05 05:26:24;;;;;;;10.90;1.70;;;;;;;3.34;100.00;99230.19;5022129;28;21021;-55
2022/01/05 05:28:51;;;;;;;2.50;1.37;;;;;;;3.37;100.00;99233.63;5018246;28;20247;-55
2022/01/05 05:31:18;;;;;;;9.13;1.23;;;;;;;3.51;100.00;99230.25;5021690;28;20732;-56
2022/01/05 05:33:45;;;;;;;2.43;1.20;;;;;;;3.37;100.00;99239.72;5025096;28;20267;-52
2022/01/05 05:36:11;;;;;;;4.87;1.20;;;;;;;3.62;100.00;99222.50;5017285;28;20684;-54
2022/01/05 05:38:37;;;;;;;3.57;1.23;;;;;;;3.66;100.00;99236.34;5028369;28;20692;-55
2022/01/05 05:41:04;;;;;;;5.20;1.10;;;;;;;3.67;100.00;99232.88;5024168;28;20324;-53
2022/01/05 05:43:30;;;;;;;4.17;1.77;;;;;;;3.63;100.00;99237.19;5026600;28;20305;-54
2022/01/05 05:45:57;;;;;;;2.97;1.00;;;;;;;3.48;100.00;99250.13;5020726;28;20262;-54
2022/01/05 05:48:24;;;;;;;2.90;1.30;;;;;;;3.45;100.00;99238.00;5013842;28;20638;-54
2022/01/05 05:50:51;;;;;;;2.67;0.93;;;;;;;3.31;100.00;99244.88;5034157;28;20266;-54
2022/01/05 05:53:17;;;;;;;3.67;1.83;;;;;;;3.47;100.00;99238.00;5028486;28;20271;-54
2022/01/05 05:55:44;;;;;;;9.27;1.67;;;;;;;3.42;100.00;99237.13;5025441;28;20317;-55
2022/01/05 05:58:10;;;;;;;4.80;1.57;;;;;;;3.42;100.00;99243.19;5024399;28;20740;-54
2022/01/05 06:00:36;;;;;;;6.30;1.53;;;;;;;3.47;100.00;99256.16;5017543;28;20721;-53
2022/01/05 06:03:03;;;;;;;5.30;1.00;;;;;;;3.49;100.00;99260.50;5026115;28;20260;-53
2022/01/05 06:05:31;;;;;;;3.77;1.30;;;;;;;3.40;100.00;99249.22;5023450;28;20240;-53
2022/01/05 06:07:57;;;;;;;5.77;1.50;;;;;;;3.45;100.00;99252.69;5033169;28;20240;-53
2022/01/05 06:10:24;;;;;;;3.40;1.80;;;;;;;3.29;100.00;99262.13;5026836;28;20236;-55
2022/01/05 06:12:50;;;;;;;2.30;1.00;;;;;;;3.26;100.00;99254.34;5033959;28;20235;-54
2022/01/05 06:15:16;;;;;;;1.97;1.20;;;;;;;3.34;100.00;99243.16;5023550;28;20285;-53
2022/01/05 06:17:43;;;;;;;2.90;1.17;;;;;;;3.37;100.00;99238.81;5025740;28;20265;-55
2022/01/05 06:20:11;;;;;;;5.17;1.77;;;;;;;3.44;100.00;99236.28;5024151;28;20332;-55
2022/01/05 06:22:40;;;;;;;6.90;1.60;;;;;;;3.55;100.00;99241.50;5026388;28;20309;-55
2022/01/05 06:25:07;;;;;;;6.97;1.60;;;;;;;3.49;100.00;99255.31;5025571;28;20229;-54
2022/01/05 06:27:34;;;;;;;8.03;2.10;;;;;;;3.44;100.00;99251.84;5025401;28;20328;-54
2022/01/05 06:30:04;;;;;;;6.03;1.43;;;;;;;3.42;100.00;99252.69;5020095;28;20318;-54
2022/01/05 06:32:30;;;;;;;9.27;1.90;;;;;;;3.44;100.00;99261.31;5023761;28;20233;-54
2022/01/05 06:34:57;;;;;;;5.03;3.00;;;;;;;3.33;100.00;99267.38;5025767;28;20267;-54
2022/01/05 06:37:23;;;;;;;6.00;1.40;;;;;;;3.29;100.00;99275.97;5026894;28;20278;-54
2022/01/05 06:39:51;;;;;;;5.80;1.37;;;;;;;3.18;100.00;99272.47;5024809;28;20239;-54
2022/01/05 06:42:17;;;;;;;3.90;1.60;;;;;;;3.22;100.00;99281.97;5025511;28;20243;-55
2022/01/05 06:44:43;;;;;;;8.00;2.63;;;;;;;3.33;100.00;99285.53;5020377;28;20688;-53
2022/01/05 06:47:10;;;;;;;5.10;1.43;;;;;;;3.23;100.00;99294.13;5019146;28;20260;-55
2022/01/05 06:49:37;;;;;;;3.47;1.87;;;;;;;3.13;100.00;99291.47;5026187;28;20242;-54
2022/01/05 06:52:04;;;;;;;6.40;1.60;;;;;;;3.11;100.00;99289.72;5024162;28;20259;-55
2022/01/05 06:54:31;;;;;;;6.10;1.63;;;;;;;3.29;100.00;99295.84;5022517;28;20266;-55
2022/01/05 06:56:58;;;;;;;3.63;1.20;;;;;;;3.26;100.00;99299.28;5024537;28;20239;-56
2022/01/05 06:59:25;;;;;;;5.23;1.90;;;;;;;3.27;100.00;99301.03;5014741;28;20235;-55
2022/01/05 07:01:51;;;;;;;6.97;1.80;;;;;;;3.30;100.00;99300.16;5023955;28;20321;-53
2022/01/05 07:04:18;;;;;;;3.67;1.47;;;;;;;3.27;100.00;99311.41;5023691;28;20775;-54
2022/01/05 07:06:44;;;;;;;9.60;1.50;;;;;;;3.30;100.00;99316.63;5027180;28;20261;-52
2022/01/05 07:09:11;;;;;;;9.73;1.80;;;;;;;3.24;100.00;99319.19;5022037;28;20668;-54
2022/01/05 07:11:38;;;;;;;3.27;1.43;;;;;;;3.32;100.00;99321.81;5023130;28;20313;-53
2022/01/05 07:14:06;;;;;;;6.90;1.57;;;;;;;3.35;100.00;99322.69;5023402;28;20249;-55
2022/01/05 07:16:32;;;;;;;7.43;2.57;;;;;;;3.27;100.00;99324.38;5022309;28;20263;-55
2022/01/05 07:18:59;;;;;;;6.50;2.00;;;;;;;3.28;100.00;99318.34;5021100;28;20713;-54
2022/01/05 07:21:25;;;;;;;7.70;2.23;;;;;;;3.27;100.00;99323.53;5016898;28;20266;-54
2022/01/05 07:23:51;;;;;;;2.77;1.27;;;;;;;3.43;100.00;99314.09;5021074;28;20263;-54
2022/01/05 07:26:18;;;;;;;12.17;2.07;;;;;;;3.47;100.00;99323.59;5020056;28;20309;-53
2022/01/05 07:28:45;;;;;;;4.40;1.70;;;;;;;3.49;99.75;99329.69;5022752;28;20282;-55
2022/01/05 07:31:12;;;;;;;7.03;1.40;;;;;;;3.50;100.00;99334.00;5021233;28;20239;-55
2022/01/05 07:33:39;;;;;;;4.97;1.50;;;;;;;3.40;100.00;99327.03;5022652;28;20263;-56
2022/01/05 07:36:05;;;;;;;4.30;1.70;;;;;;;3.35;99.87;99330.47;5021051;28;20720;-55
2022/01/05 07:38:31;;;;;;;7.40;2.03;;;;;;;3.40;100.00;99337.41;5022179;28;20274;-55
2022/01/05 07:40:58;;;;;;;4.60;1.60;;;;;;;3.26;100.00;99325.22;5017263;28;20270;-56
2022/01/05 07:43:24;;;;;;;2.53;1.20;;;;;;;3.20;100.00;99330.41;5020711;28;20716;-55
2022/01/05 07:45:50;;;;;;;9.13;2.17;;;;;;;3.24;99.74;99321.78;5021706;28;20274;-55
2022/01/05 07:48:18;;;;;;;11.33;1.80;;;;;;;3.30;99.44;99327.00;5021078;28;20324;-55
2022/01/05 07:50:45;;;;;;;4.73;1.70;;;;;;;3.34;99.86;99331.34;5020575;28;20243;-56
2022/01/05 07:53:11;;;;;;;6.40;1.53;;;;;;;3.40;98.72;99327.91;5023341;28;20258;-55
2022/01/05 07:55:37;;;;;;;5.63;2.00;;;;;;;3.47;97.49;99339.19;5022640;28;20232;-55
2022/01/05 07:58:04;;;;;;;6.30;1.90;;;;;;;3.34;97.18;99338.25;5022129;28;20292;-54
2022/01/05 08:00:30;;;;;;;3.37;1.60;;;;;;;3.47;97.54;99341.78;5021842;28;20759;-55
2022/01/05 08:02:57;;;;;;;4.87;2.13;;;;;;;3.34;96.81;99336.53;5022734;28;20271;-55
2022/01/05 08:05:25;;;;;;;6.63;1.70;;;;;;;3.37;97.90;99334.78;5021799;28;20248;-56
2022/01/05 08:07:51;;;;;;;4.13;1.70;;;;;;;3.33;97.34;99332.22;5026249;28;20297;-55
2022/01/05 08:10:17;;;;;;;6.57;2.10;;;;;;;3.30;97.00;99337.38;5022471;28;20342;-55
2022/01/05 08:12:44;;;;;;;3.23;1.43;;;;;;;3.41;97.77;99340.03;5022286;28;20256;-54
2022/01/05 08:15:11;;;;;;;3.53;1.60;;;;;;;3.47;96.58;99333.97;5028434;28;20236;-54
2022/01/05 08:17:39;;;;;;;4.60;2.13;;;;;;;3.33;96.54;99336.50;5021788;28;20255;-55
2022/01/05 08:20:10;;;;;;;12.23;1.90;;;;;;;3.26;96.04;99338.19;5020316;28;20246;-54
2022/01/05 08:22:40;;;;;;;8.10;3.13;;;;;;;3.33;97.52;99342.59;5019077;28;20240;-54
2022/01/05 08:25:08;;;;;;;3.40;1.53;;;;;;;3.31;96.64;99338.25;5022856;28;20243;-54
2022/01/05 08:27:34;;;;;;;2.03;1.60;;;;;;;3.30;96.10;99339.97;5022742;28;20267;-54
2022/01/05 08:30:04;;;;;;;8.03;2.27;;;;;;;3.33;97.20;99336.50;5023780;28;20259;-55
2022/01/05 08:32:31;;;;;;;7.70;2.10;;;;;;;3.29;95.56;99346.00;5019327;28;20231;-53
2022/01/05 08:34:57;;;;;;;4.73;2.30;;;;;;;3.12;95.65;99345.03;5017812;28;20678;-55
2022/01/05 08:37:23;;;;;;;7.17;2.00;;;;;;;3.04;95.77;99344.97;5022566;28;20274;-54
2022/01/05 08:39:53;;;;;;;10.53;1.97;;;;;;;3.20;94.69;99345.97;5021855;28;20301;-54
2022/01/05 08:42:19;;;;;;;3.83;1.80;;;;;;;3.11;95.53;99343.28;5019810;28;20331;-55
2022/01/05 08:44:45;;;;;;;10.03;3.23;;;;;;;3.15;95.85;99345.03;5025880;28;20886;-55
2022/01/05 08:47:11;;;;;;;4.90;2.57;;;;;;;3.07;94.57;99345.00;5021411;28;20890;-54
2022/01/05 08:49:38;;;;;;;4.90;1.43;;;;;;;3.04;94.53;99355.34;5019720;28;20247;-54
2022/01/05 08:52:05;;;;;;;4.53;2.20;;;;;;;3.18;94.69;99352.84;5022472;28;20256;-55
2022/01/05 08:54:31;;;;;;;26.30;11.53;;;;;;;3.14;92.80;99351.09;5023558;28;20256;-55
2022/01/05 08:56:59;;;;;;;4.57;1.80;;;;;;;3.14;93.63;99343.31;5020254;28;20917;-55
2022/01/05 08:59:25;;;;;;;8.30;2.53;;;;;;;3.04;93.75;99350.16;5018533;28;20722;-54
2022/01/05 09:01:51;;;;;;;7.40;2.70;;;;;;;3.14;93.25;99351.09;5020707;28;20313;-54
2022/01/05 09:04:18;;;;;;;7.93;2.40;;;;;;;3.31;92.55;99349.47;5013269;28;20621;-54
2022/01/05 09:06:44;;;;;;;10.20;2.53;;;;;;;3.34;91.62;99353.81;5016661;28;20318;-55
2022/01/05 09:09:11;;;;;;;3.80;1.83;;;;;;;3.42;90.81;99359.91;5017787;28;20254;-55
2022/01/05 09:11:37;;;;;;;7.97;1.90;;;;;;;3.39;90.82;99356.44;5014370;28;20251;-55
2022/01/05 09:14:05;;;;;;;4.00;1.80;;;;;;;3.44;88.98;99357.31;5013227;28;20232;-55
2022/01/05 09:16:32;;;;;;;10.03;1.87;;;;;;;3.53;89.48;99365.16;5012454;28;20790;-54
2022/01/05 09:18:59;;;;;;;9.83;2.00;;;;;;;3.57;88.51;99361.72;5016375;28;20244;-56
2022/01/05 09:21:25;;;;;;;12.47;2.30;;;;;;;3.58;88.19;99368.66;5010963;28;20236;-55
2022/01/05 09:23:51;;;;;;;12.83;4.93;;;;;;;3.42;88.30;99361.66;5016415;28;20930;-55
2022/01/05 09:26:18;;;;;;;5.72;2.67;;;;;;;3.49;87.62;99366.00;5016983;28;20442;-54
2022/01/05 09:28:44;;;;;;;7.13;1.87;;;;;;;3.52;87.36;99368.63;5017858;28;20255;-52
2022/01/05 09:31:13;;;;;;;9.10;2.40;;;;;;;3.37;87.51;99378.91;5016213;28;20233;-53
2022/01/05 09:33:39;;;;;;;4.10;2.13;;;;;;;3.42;87.13;99378.06;5015989;28;20239;-54
2022/01/05 09:36:12;;;;;;;3.10;1.50;;;;;;;3.30;85.91;99378.88;5026947;28;20248;-53
2022/01/05 09:41:56;;;;;;;5.00;2.43;;;;;;;3.42;86.97;99369.44;5020690;28;20242;-54
2022/01/05 09:44:11;;;;;;;6.37;2.97;;;;;;;3.66;85.15;99377.34;5018374;28;20247;-55
2022/01/05 09:46:50;;;;;;;7.30;2.53;;;;;;;3.81;83.77;99371.34;5018628;28;21080;-54
2022/01/05 09:49:19;;;;;;;10.03;2.53;;;;;;;3.81;82.70;99384.31;5020504;28;20286;-55
2022/01/05 09:51:52;;;;;;;7.40;1.85;;;;;;;3.85;83.09;99380.03;5021455;28;20530;-54
2022/01/05 09:54:18;;;;;;;5.40;2.23;;;;;;;3.82;83.27;99386.06;5023504;28;20251;-52
2022/01/05 09:56:44;;;;;;;5.83;2.17;;;;;;;3.91;82.57;99382.66;5014486;28;20263;-55
2022/01/05 09:59:11;;;;;;;3.83;1.63;;;;;;;3.85;83.45;99393.00;5014802;28;20227;-54
2022/01/05 10:01:38;;;;;;;12.07;3.67;;;;;;;3.85;82.88;99403.38;5016189;28;21099;-56
2022/01/05 10:04:06;;;;;;;5.80;2.20;;;;;;;3.93;82.39;99402.56;5015082;28;20739;-55
2022/01/05 10:06:34;;;;;;;5.50;2.27;;;;;;;3.99;83.35;99396.50;5019969;28;20262;-55
2022/01/05 10:09:01;;;;;;;7.70;2.47;;;;;;;4.06;83.56;99400.88;5022001;28;20945;-53
2022/01/05 10:11:29;;;;;;;6.57;2.23;;;;;;;4.26;82.11;99401.81;5016541;28;20314;-55
2022/01/05 10:13:55;;;;;;;5.27;1.93;;;;;;;4.21;82.50;99411.34;5022383;28;20248;-55
2022/01/05 10:16:21;;;;;;;4.70;2.27;;;;;;;4.14;82.57;99406.09;5020013;28;20274;-55
2022/01/05 10:18:48;;;;;;;5.73;2.17;;;;;;;4.20;81.61;99412.16;5020364;28;20263;-55
2022/01/05 10:21:15;;;;;;;7.27;2.50;;;;;;;3.95;81.59;99405.16;5024310;28;20267;-54
2022/01/05 10:23:45;;;;;;;4.80;2.23;;;;;;;4.04;81.44;99400.00;5024607;28;20263;-54
2022/01/05 10:26:24;;;;;;;9.83;2.17;;;;;;;3.94;81.71;99401.69;5021727;28;20235;-54
2022/01/05 10:28:52;;;;;;;2.73;2.07;;;;;;;4.05;81.52;99396.53;5024584;28;20227;-55
2022/01/05 10:31:20;;;;;;;5.47;2.20;;;;;;;4.16;82.38;99399.19;5024557;28;20242;-52
2022/01/05 10:33:46;;;;;;;4.23;1.83;;;;;;;4.18;81.83;99393.13;5021185;28;20232;-53
2022/01/05 10:36:12;;;;;;;9.03;2.47;;;;;;;4.17;82.37;99396.56;5023733;28;20263;-54
2022/01/05 10:38:51;;;;;;;4.43;1.90;;;;;;;4.12;82.15;99400.03;5022055;28;20228;-52
2022/01/05 10:41:18;;;;;;;6.13;2.17;;;;;;;4.07;80.71;99400.91;5023226;28;20271;-53
2022/01/05 10:44:07;;;;;;;8.60;2.30;;;;;;;3.93;81.39;99405.16;5025212;28;20248;-54
2022/01/05 10:46:34;;;;;;;9.83;2.67;;;;;;;3.90;80.88;99401.69;5010262;28;20260;-55
2022/01/05 10:49:03;;;;;;;11.77;1.80;;;;;;;3.88;81.60;99406.00;5023626;28;20228;-54
2022/01/05 10:51:30;;;;;;;9.53;2.53;;;;;;;3.98;81.54;99399.97;5022862;28;20261;-54
2022/01/05 10:54:12;;;;;;;6.47;1.80;;;;;;;3.91;80.73;99390.44;5023505;28;20229;-56
2022/01/05 10:56:38;;;;;;;4.13;2.00;;;;;;;4.15;81.40;99385.34;5022978;28;20579;-54
2022/01/05 10:59:04;;;;;;;8.03;2.80;;;;;;;3.91;79.36;99391.28;5025912;28;20886;-54
2022/01/05 11:01:31;;;;;;;4.37;2.80;;;;;;;3.89;80.90;99390.41;5022871;28;20317;-54
2022/01/05 11:03:59;;;;;;;8.07;1.90;;;;;;;3.89;79.53;99389.53;5023740;28;20238;-53
2022/01/05 11:06:25;;;;;;;4.43;1.80;;;;;;;3.91;80.47;99367.06;5028862;28;20256;-53
2022/01/05 11:08:54;;;;;;;5.23;2.83;;;;;;;4.04;79.34;99387.91;5024542;28;20230;-53
2022/01/05 11:11:35;;;;;;;7.30;2.10;;;;;;;4.13;79.27;99371.47;5029152;28;20289;-53
2022/01/05 11:14:01;;;;;;;10.80;5.50;;;;;;;4.09;79.46;99384.44;5025234;28;20879;-54
2022/01/05 11:16:28;;;;;;;2.63;1.50;;;;;;;4.04;78.39;99374.03;5028312;28;20631;-54
2022/01/05 11:19:13;;;;;;;5.47;1.87;;;;;;;3.95;79.76;99381.78;5031052;28;20232;-54
2022/01/05 11:21:40;;;;;;;13.67;3.43;;;;;;;3.93;79.96;99373.13;5027683;28;20277;-54
2022/01/05 11:24:07;;;;;;;6.13;2.47;;;;;;;4.17;80.04;99365.41;5026352;28;20445;-53
2022/01/05 11:26:36;;;;;;;5.80;1.97;;;;;;;4.20;78.61;99375.81;5025228;28;20240;-54
2022/01/05 11:29:04;;;;;;;5.90;2.77;;;;;;;4.17;79.67;99370.59;5017146;28;20889;-54
2022/01/05 11:31:31;;;;;;;6.47;2.03;;;;;;;4.11;78.39;99373.19;5019430;28;20252;-54
2022/01/05 11:33:58;;;;;;;9.13;3.07;;;;;;;4.06;78.16;99378.34;5022623;28;20255;-53
2022/01/05 11:36:25;;;;;;;8.83;2.03;;;;;;;4.21;79.27;99374.06;5029140;28;20260;-53
2022/01/05 11:38:51;;;;;;;6.10;1.80;;;;;;;4.30;77.51;99380.16;5020541;28;20666;-55